createdAt,value
2017-10-15T00:00:09.897Z,0
2017-10-15T00:01:10.560Z,0
2017-10-15T00:02:09.541Z,0
2017-10-15T00:03:09.903Z,0
2017-10-15T00:04:10.236Z,0
2017-10-15T00:05:09.842Z,0
2017-10-15T00:06:09.481Z,0
2017-10-15T00:07:09.469Z,0
2017-10-15T00:08:10.126Z,0
2017-10-15T00:09:10.119Z,0
2017-10-15T00:10:09.427Z,0
2017-10-15T00:11:09.794Z,0
2017-10-15T00:12:09.739Z,0
2017-10-15T00:13:09.724Z,0
2017-10-15T00:14:09.374Z,0
2017-10-15T00:15:09.365Z,0
2017-10-15T00:16:10.137Z,0
2017-10-15T00:17:09.760Z,0
2017-10-15T00:18:09.989Z,0
2017-10-15T00:19:10.315Z,0
2017-10-15T00:20:09.964Z,0
2017-10-15T00:21:09.620Z,0
2017-10-15T00:22:10.277Z,0
2017-10-15T00:23:09.268Z,0
2017-10-15T00:24:09.592Z,0
2017-10-15T00:25:09.563Z,0
2017-10-15T00:26:10.214Z,0
2017-10-15T00:27:09.541Z,0
2017-10-15T00:28:10.191Z,0
2017-10-15T00:29:09.852Z,0
2017-10-15T00:30:09.854Z,0
2017-10-15T00:31:10.147Z,0
2017-10-15T00:32:10.136Z,0
2017-10-15T00:33:09.790Z,0
2017-10-15T00:34:10.110Z,0
2017-10-15T00:35:09.764Z,0
2017-10-15T00:36:10.085Z,0
2017-10-15T00:37:09.414Z,0
2017-10-15T00:38:09.387Z,0
2017-10-15T00:39:09.711Z,0
2017-10-15T00:40:09.359Z,0
2017-10-15T00:41:09.778Z,0
2017-10-15T00:42:09.669Z,0
2017-10-15T00:43:09.653Z,0
2017-10-15T00:44:09.651Z,0
2017-10-15T00:45:10.052Z,0
2017-10-15T00:46:09.994Z,0
2017-10-15T00:47:09.602Z,0
2017-10-15T00:48:09.257Z,0
2017-10-15T00:49:09.575Z,0
2017-10-15T00:50:09.572Z,0
2017-10-15T00:51:09.561Z,0
2017-10-15T00:52:09.871Z,0
2017-10-15T00:53:09.525Z,0
2017-10-15T00:54:09.325Z,0
2017-10-15T00:55:08.822Z,0
2017-10-15T00:56:09.148Z,0
2017-10-15T00:57:09.463Z,0
2017-10-15T00:58:09.520Z,0
2017-10-15T00:59:09.773Z,0
2017-10-15T01:00:09.424Z,0
2017-10-15T01:01:09.416Z,0
2017-10-15T01:02:08.729Z,0
2017-10-15T01:03:09.427Z,0
2017-10-15T01:04:08.705Z,0
2017-10-15T01:05:09.057Z,0
2017-10-15T01:06:09.677Z,0
2017-10-15T01:07:08.994Z,0
2017-10-15T01:08:09.009Z,0
2017-10-15T01:09:09.309Z,0
2017-10-15T01:10:09.316Z,0
2017-10-15T01:11:08.941Z,0
2017-10-15T01:12:08.599Z,0
2017-10-15T01:13:08.913Z,0
2017-10-15T01:14:09.231Z,0
2017-10-15T01:15:09.567Z,0
2017-10-15T01:16:08.541Z,0
2017-10-15T01:17:08.858Z,0
2017-10-15T01:18:08.843Z,0
2017-10-15T01:19:08.512Z,0
2017-10-15T01:20:08.816Z,0
2017-10-15T01:21:08.805Z,0
2017-10-15T01:22:09.124Z,0
2017-10-15T01:23:09.455Z,0
2017-10-15T01:24:08.429Z,0
2017-10-15T01:25:08.748Z,0
2017-10-15T01:26:09.409Z,0
2017-10-15T01:27:09.403Z,0
2017-10-15T01:28:08.707Z,0
2017-10-15T01:29:09.381Z,0
2017-10-15T01:30:08.680Z,0
2017-10-15T01:31:08.337Z,0
2017-10-15T01:32:08.982Z,0
2017-10-15T01:33:08.976Z,0
2017-10-15T01:34:08.961Z,0
2017-10-15T01:35:08.958Z,0
2017-10-15T01:36:08.939Z,0
2017-10-15T01:37:09.259Z,0
2017-10-15T01:38:09.238Z,0
2017-10-15T01:39:09.239Z,0
2017-10-15T01:40:08.876Z,0
2017-10-15T01:41:08.534Z,0
2017-10-15T01:42:08.853Z,0
2017-10-15T01:43:08.501Z,0
2017-10-15T01:44:08.823Z,0
2017-10-15T01:45:08.814Z,0
2017-10-15T01:46:08.801Z,0
2017-10-15T01:47:08.791Z,0
2017-10-15T01:48:08.482Z,0
2017-10-15T01:49:08.429Z,0
2017-10-15T01:50:08.409Z,0
2017-10-15T01:51:08.407Z,0
2017-10-15T01:52:08.375Z,0
2017-10-15T01:53:08.370Z,0
2017-10-15T01:54:08.689Z,0
2017-10-15T01:55:08.341Z,0
2017-10-15T01:56:09.000Z,0
2017-10-15T01:57:08.651Z,0
2017-10-15T01:58:08.634Z,0
2017-10-15T01:59:08.619Z,0
2017-10-15T02:00:08.941Z,0
2017-10-15T02:01:08.593Z,0
2017-10-15T02:02:08.572Z,0
2017-10-15T02:03:08.570Z,0
2017-10-15T02:04:08.890Z,0
2017-10-15T02:05:08.877Z,0
2017-10-15T02:06:08.525Z,0
2017-10-15T02:07:08.838Z,0
2017-10-15T02:08:08.155Z,0
2017-10-15T02:09:08.148Z,0
2017-10-15T02:10:08.466Z,0
2017-10-15T02:11:08.464Z,0
2017-10-15T02:12:08.110Z,0
2017-10-15T02:13:08.422Z,0
2017-10-15T02:14:08.762Z,0
2017-10-15T02:15:08.060Z,0
2017-10-15T02:16:08.712Z,0
2017-10-15T02:17:08.369Z,0
2017-10-15T02:18:08.358Z,0
2017-10-15T02:19:08.341Z,0
2017-10-15T02:20:08.668Z,0
2017-10-15T02:21:07.981Z,0
2017-10-15T02:22:08.299Z,0
2017-10-15T02:23:07.949Z,0
2017-10-15T02:24:07.931Z,0
2017-10-15T02:25:08.591Z,0
2017-10-15T02:26:08.247Z,0
2017-10-15T02:27:07.892Z,0
2017-10-15T02:28:08.212Z,0
2017-10-15T02:29:08.200Z,0
2017-10-15T02:30:08.573Z,0
2017-10-15T02:31:08.185Z,0
2017-10-15T02:32:08.159Z,0
2017-10-15T02:33:07.809Z,0
2017-10-15T02:34:08.145Z,0
2017-10-15T02:35:08.447Z,0
2017-10-15T02:36:08.095Z,0
2017-10-15T02:37:08.098Z,0
2017-10-15T02:38:08.083Z,0
2017-10-15T02:39:07.726Z,0
2017-10-15T02:40:07.715Z,0
2017-10-15T02:41:07.364Z,0
2017-10-15T02:42:07.681Z,0
2017-10-15T02:43:07.667Z,0
2017-10-15T02:44:07.998Z,0
2017-10-15T02:45:07.974Z,0
2017-10-15T02:46:07.976Z,0
2017-10-15T02:47:07.952Z,0
2017-10-15T02:48:07.263Z,0
2017-10-15T02:49:07.249Z,0
2017-10-15T02:50:07.902Z,0
2017-10-15T02:51:08.221Z,0
2017-10-15T02:52:08.210Z,0
2017-10-15T02:53:08.191Z,0
2017-10-15T02:54:07.854Z,0
2017-10-15T02:55:07.837Z,0
2017-10-15T02:56:07.815Z,0
2017-10-15T02:57:07.467Z,0
2017-10-15T02:58:07.455Z,0
2017-10-15T02:59:07.771Z,0
2017-10-15T03:00:07.433Z,0
2017-10-15T03:01:07.423Z,0
2017-10-15T03:02:07.726Z,0
2017-10-15T03:03:08.057Z,0
2017-10-15T03:04:07.418Z,0
2017-10-15T03:05:08.018Z,0
2017-10-15T03:06:06.998Z,0
2017-10-15T03:07:07.330Z,0
2017-10-15T03:08:07.310Z,0
2017-10-15T03:09:07.632Z,0
2017-10-15T03:10:07.623Z,0
2017-10-15T03:11:07.613Z,0
2017-10-15T03:12:06.917Z,0
2017-10-15T03:13:07.240Z,0
2017-10-15T03:14:07.563Z,0
2017-10-15T03:15:06.877Z,0
2017-10-15T03:16:07.534Z,0
2017-10-15T03:17:07.850Z,0
2017-10-15T03:18:07.167Z,0
2017-10-15T03:19:07.495Z,0
2017-10-15T03:20:07.806Z,0
2017-10-15T03:21:07.469Z,0
2017-10-15T03:22:06.773Z,0
2017-10-15T03:23:07.427Z,0
2017-10-15T03:24:07.415Z,0
2017-10-15T03:25:07.734Z,0
2017-10-15T03:26:07.061Z,0
2017-10-15T03:27:07.705Z,0
2017-10-15T03:28:07.026Z,0
2017-10-15T03:29:07.000Z,0
2017-10-15T03:30:07.009Z,0
2017-10-15T03:31:07.313Z,0
2017-10-15T03:32:06.958Z,0
2017-10-15T03:33:07.277Z,0
2017-10-15T03:34:07.284Z,0
2017-10-15T03:35:07.251Z,0
2017-10-15T03:36:06.901Z,0
2017-10-15T03:37:07.554Z,0
2017-10-15T03:38:06.877Z,0
2017-10-15T03:39:06.862Z,0
2017-10-15T03:40:06.846Z,0
2017-10-15T03:41:07.169Z,0
2017-10-15T03:42:07.152Z,0
2017-10-15T03:43:07.476Z,0
2017-10-15T03:44:07.454Z,0
2017-10-15T03:45:07.118Z,0
2017-10-15T03:46:06.760Z,0
2017-10-15T03:47:07.409Z,0
2017-10-15T03:48:07.070Z,0
2017-10-15T03:49:07.053Z,0
2017-10-15T03:50:07.032Z,0
2017-10-15T03:51:06.684Z,0
2017-10-15T03:52:07.006Z,0
2017-10-15T03:53:06.325Z,0
2017-10-15T03:54:06.977Z,0
2017-10-15T03:55:07.298Z,0
2017-10-15T03:56:07.278Z,0
2017-10-15T03:57:06.949Z,0
2017-10-15T03:58:07.251Z,0
2017-10-15T03:59:06.916Z,0
2017-10-15T04:00:06.557Z,0
2017-10-15T04:01:06.930Z,0
2017-10-15T04:02:06.525Z,0
2017-10-15T04:03:06.517Z,0
2017-10-15T04:04:06.504Z,0
2017-10-15T04:05:06.818Z,0
2017-10-15T04:06:06.835Z,0
2017-10-15T04:07:07.116Z,0
2017-10-15T04:08:06.439Z,0
2017-10-15T04:09:06.759Z,0
2017-10-15T04:10:06.746Z,0
2017-10-15T04:11:06.061Z,0
2017-10-15T04:12:07.049Z,0
2017-10-15T04:13:06.699Z,0
2017-10-15T04:14:06.377Z,0
2017-10-15T04:15:06.683Z,0
2017-10-15T04:16:05.989Z,0
2017-10-15T04:17:06.641Z,0
2017-10-15T04:18:05.958Z,0
2017-10-15T04:19:06.302Z,0
2017-10-15T04:20:06.959Z,0
2017-10-15T04:21:06.248Z,0
2017-10-15T04:22:06.567Z,0
2017-10-15T04:23:06.555Z,0
2017-10-15T04:24:06.890Z,0
2017-10-15T04:25:06.525Z,0
2017-10-15T04:26:06.379Z,0
2017-10-15T04:27:06.828Z,0
2017-10-15T04:28:06.491Z,0
2017-10-15T04:29:06.801Z,0
2017-10-15T04:30:06.127Z,0
2017-10-15T04:31:06.101Z,0
2017-10-15T04:32:06.089Z,0
2017-10-15T04:33:06.741Z,0
2017-10-15T04:34:05.723Z,0
2017-10-15T04:35:06.044Z,0
2017-10-15T04:36:06.377Z,0
2017-10-15T04:37:06.014Z,0
2017-10-15T04:38:06.010Z,0
2017-10-15T04:39:06.321Z,0
2017-10-15T04:40:06.316Z,0
2017-10-15T04:41:06.306Z,0
2017-10-15T04:42:05.946Z,0
2017-10-15T04:43:06.263Z,0
2017-10-15T04:44:05.912Z,0
2017-10-15T04:45:05.899Z,0
2017-10-15T04:46:05.880Z,0
2017-10-15T04:47:06.204Z,0
2017-10-15T04:48:06.521Z,0
2017-10-15T04:49:05.840Z,0
2017-10-15T04:50:05.834Z,0
2017-10-15T04:51:06.152Z,0
2017-10-15T04:52:06.478Z,0
2017-10-15T04:53:05.799Z,0
2017-10-15T04:54:06.453Z,0
2017-10-15T04:55:06.092Z,0
2017-10-15T04:56:06.096Z,0
2017-10-15T04:57:05.763Z,0
2017-10-15T04:58:05.710Z,0
2017-10-15T04:59:06.034Z,0
2017-10-15T05:00:06.026Z,0
2017-10-15T05:01:06.007Z,0
2017-10-15T05:02:05.991Z,0
2017-10-15T05:03:05.647Z,0
2017-10-15T05:04:05.949Z,0
2017-10-15T05:05:05.606Z,0
2017-10-15T05:06:05.930Z,0
2017-10-15T05:07:05.583Z,0
2017-10-15T05:08:05.902Z,0
2017-10-15T05:09:05.553Z,0
2017-10-15T05:10:05.540Z,0
2017-10-15T05:11:05.865Z,0
2017-10-15T05:12:05.514Z,0
2017-10-15T05:13:05.821Z,0
2017-10-15T05:14:06.134Z,0
2017-10-15T05:15:05.805Z,0
2017-10-15T05:16:05.452Z,0
2017-10-15T05:17:05.764Z,0
2017-10-15T05:18:06.083Z,0
2017-10-15T05:19:05.729Z,0
2017-10-15T05:20:06.053Z,0
2017-10-15T05:21:06.043Z,0
2017-10-15T05:22:05.353Z,0
2017-10-15T05:23:05.718Z,0
2017-10-15T05:24:04.998Z,0
2017-10-15T05:25:05.986Z,0
2017-10-15T05:26:05.622Z,4
2017-10-15T05:27:05.285Z,4
2017-10-15T05:28:05.610Z,0
2017-10-15T05:29:05.253Z,4
2017-10-15T05:30:05.910Z,4
2017-10-15T05:31:05.569Z,4
2017-10-15T05:32:05.541Z,8
2017-10-15T05:33:05.199Z,8
2017-10-15T05:34:05.852Z,8
2017-10-15T05:35:05.500Z,8
2017-10-15T05:36:04.827Z,12
2017-10-15T05:37:04.805Z,16
2017-10-15T05:38:05.783Z,16
2017-10-15T05:39:05.109Z,20
2017-10-15T05:40:05.438Z,24
2017-10-15T05:41:05.089Z,32
2017-10-15T05:42:05.065Z,36
2017-10-15T05:43:05.440Z,40
2017-10-15T05:44:05.036Z,48
2017-10-15T05:45:05.026Z,56
2017-10-15T05:46:05.007Z,64
2017-10-15T05:47:05.319Z,72
2017-10-15T05:48:05.318Z,84
2017-10-15T05:49:05.295Z,96
2017-10-15T05:50:05.607Z,104
2017-10-15T05:51:04.926Z,116
2017-10-15T05:52:05.583Z,132
2017-10-15T05:53:05.561Z,144
2017-10-15T05:54:04.880Z,160
2017-10-15T05:55:05.544Z,176
2017-10-15T05:56:04.854Z,192
2017-10-15T05:57:05.515Z,208
2017-10-15T05:58:05.152Z,224
2017-10-15T05:59:04.827Z,244
2017-10-15T06:00:05.465Z,260
2017-10-15T06:01:05.113Z,280
2017-10-15T06:02:05.454Z,300
2017-10-15T06:03:05.084Z,320
2017-10-15T06:04:04.748Z,336
2017-10-15T06:05:05.053Z,360
2017-10-15T06:06:05.039Z,376
2017-10-15T06:07:05.026Z,400
2017-10-15T06:08:04.345Z,420
2017-10-15T06:09:04.663Z,440
2017-10-15T06:10:04.985Z,460
2017-10-15T06:11:04.624Z,484
2017-10-15T06:12:04.943Z,504
2017-10-15T06:13:05.265Z,524
2017-10-15T06:14:04.584Z,548
2017-10-15T06:15:04.238Z,564
2017-10-15T06:16:04.548Z,588
2017-10-15T06:17:04.530Z,604
2017-10-15T06:18:04.854Z,628
2017-10-15T06:19:04.499Z,644
2017-10-15T06:20:05.158Z,668
2017-10-15T06:21:05.143Z,684
2017-10-15T06:22:04.799Z,704
2017-10-15T06:23:05.117Z,724
2017-10-15T06:24:04.097Z,744
2017-10-15T06:25:04.753Z,760
2017-10-15T06:26:04.269Z,776
2017-10-15T06:27:04.720Z,796
2017-10-15T06:28:04.700Z,816
2017-10-15T06:29:04.412Z,832
2017-10-15T06:30:05.016Z,852
2017-10-15T06:31:04.327Z,864
2017-10-15T06:32:04.984Z,884
2017-10-15T06:33:04.302Z,900
2017-10-15T06:34:04.297Z,920
2017-10-15T06:35:04.941Z,932
2017-10-15T06:36:04.586Z,948
2017-10-15T06:37:04.575Z,964
2017-10-15T06:38:04.091Z,980
2017-10-15T06:39:04.540Z,996
2017-10-15T06:40:04.536Z,1008
2017-10-15T06:41:03.851Z,1020
2017-10-15T06:42:04.498Z,1036
2017-10-15T06:43:04.490Z,1048
2017-10-15T06:44:04.467Z,1060
2017-10-15T06:45:04.124Z,1072
2017-10-15T06:46:04.103Z,1088
2017-10-15T06:47:04.761Z,1100
2017-10-15T06:48:04.413Z,1112
2017-10-15T06:49:04.395Z,1124
2017-10-15T06:50:04.714Z,1136
2017-10-15T06:51:03.698Z,1148
2017-10-15T06:52:04.358Z,1160
2017-10-15T06:53:04.338Z,1176
2017-10-15T06:54:04.375Z,1184
2017-10-15T06:55:03.976Z,1196
2017-10-15T06:56:03.960Z,1204
2017-10-15T06:57:04.278Z,1216
2017-10-15T06:58:03.933Z,1224
2017-10-15T06:59:04.262Z,1240
2017-10-15T07:00:04.260Z,1248
2017-10-15T07:01:04.229Z,1260
2017-10-15T07:02:03.875Z,1272
2017-10-15T07:03:04.203Z,1280
2017-10-15T07:04:04.185Z,1292
2017-10-15T07:05:04.536Z,1300
2017-10-15T07:06:04.149Z,1308
2017-10-15T07:07:04.480Z,1320
2017-10-15T07:08:04.118Z,1332
2017-10-15T07:09:04.446Z,1340
2017-10-15T07:10:03.420Z,1352
2017-10-15T07:11:04.082Z,1360
2017-10-15T07:12:03.392Z,1368
2017-10-15T07:13:04.389Z,1376
2017-10-15T07:14:04.038Z,1384
2017-10-15T07:15:04.037Z,1392
2017-10-15T07:16:03.671Z,1400
2017-10-15T07:17:03.324Z,1412
2017-10-15T07:18:04.315Z,1424
2017-10-15T07:19:03.962Z,1428
2017-10-15T07:20:04.313Z,1432
2017-10-15T07:21:03.947Z,1440
2017-10-15T07:22:04.250Z,1452
2017-10-15T07:23:03.915Z,1460
2017-10-15T07:24:04.257Z,1464
2017-10-15T07:25:03.541Z,1476
2017-10-15T07:26:03.197Z,1480
2017-10-15T07:27:04.204Z,1492
2017-10-15T07:28:03.503Z,1500
2017-10-15T07:29:04.157Z,1508
2017-10-15T07:30:03.814Z,1516
2017-10-15T07:31:03.451Z,1524
2017-10-15T07:32:03.777Z,1524
2017-10-15T07:33:03.430Z,1532
2017-10-15T07:34:04.101Z,1540
2017-10-15T07:35:04.070Z,1544
2017-10-15T07:36:03.388Z,1552
2017-10-15T07:37:03.376Z,1556
2017-10-15T07:38:04.058Z,1564
2017-10-15T07:39:03.015Z,1572
2017-10-15T07:40:03.684Z,1580
2017-10-15T07:41:03.653Z,1588
2017-10-15T07:42:03.637Z,1600
2017-10-15T07:43:02.957Z,1612
2017-10-15T07:44:04.002Z,1620
2017-10-15T07:45:03.944Z,1640
2017-10-15T07:46:03.589Z,1656
2017-10-15T07:47:03.236Z,1664
2017-10-15T07:48:03.892Z,1680
2017-10-15T07:49:03.547Z,1692
2017-10-15T07:50:02.871Z,1696
2017-10-15T07:51:02.854Z,1700
2017-10-15T07:52:03.841Z,1708
2017-10-15T07:53:03.835Z,1716
2017-10-15T07:54:03.479Z,1732
2017-10-15T07:55:02.806Z,1756
2017-10-15T07:56:03.457Z,1784
2017-10-15T07:57:03.768Z,1796
2017-10-15T07:58:03.774Z,1796
2017-10-15T07:59:03.742Z,2504
2017-10-15T08:00:02.733Z,3524
2017-10-15T08:01:02.714Z,3060
2017-10-15T08:02:02.712Z,3288
2017-10-15T08:03:03.363Z,7404
2017-10-15T08:04:03.343Z,7264
2017-10-15T08:05:03.001Z,4996
2017-10-15T08:06:03.319Z,3104
2017-10-15T08:07:03.310Z,1924
2017-10-15T08:08:02.957Z,1948
2017-10-15T08:09:03.612Z,1860
2017-10-15T08:10:03.265Z,2232
2017-10-15T08:11:03.588Z,2000
2017-10-15T08:12:03.243Z,1916
2017-10-15T08:13:02.895Z,2076
2017-10-15T08:14:03.559Z,2508
2017-10-15T08:15:03.204Z,2364
2017-10-15T08:16:02.854Z,3116
2017-10-15T08:17:03.182Z,2448
2017-10-15T08:18:03.169Z,2572
2017-10-15T08:19:03.157Z,3008
2017-10-15T08:20:03.151Z,2012
2017-10-15T08:21:03.131Z,1916
2017-10-15T08:22:02.785Z,1944
2017-10-15T08:23:02.437Z,2324
2017-10-15T08:24:02.424Z,3756
2017-10-15T08:25:03.082Z,4100
2017-10-15T08:26:03.823Z,3956
2017-10-15T08:27:03.070Z,3388
2017-10-15T08:28:03.038Z,2368
2017-10-15T08:29:03.359Z,2072
2017-10-15T08:30:02.682Z,2044
2017-10-15T08:31:03.020Z,2124
2017-10-15T08:32:02.664Z,2224
2017-10-15T08:33:03.316Z,1980
2017-10-15T08:34:02.977Z,2032
2017-10-15T08:35:02.669Z,2068
2017-10-15T08:36:02.281Z,2044
2017-10-15T08:37:03.264Z,2024
2017-10-15T08:38:02.253Z,2232
2017-10-15T08:39:02.580Z,2040
2017-10-15T08:40:02.568Z,2500
2017-10-15T08:41:02.889Z,2704
2017-10-15T08:42:02.217Z,2320
2017-10-15T08:43:02.866Z,2160
2017-10-15T08:44:02.185Z,2072
2017-10-15T08:45:02.877Z,2036
2017-10-15T08:46:02.840Z,2040
2017-10-15T08:47:02.819Z,2056
2017-10-15T08:48:02.818Z,2092
2017-10-15T08:49:02.792Z,2380
2017-10-15T08:50:02.780Z,2092
2017-10-15T08:51:02.791Z,2128
2017-10-15T08:52:02.088Z,2108
2017-10-15T08:53:02.742Z,2192
2017-10-15T08:54:03.071Z,2100
2017-10-15T08:55:02.786Z,2108
2017-10-15T08:56:02.376Z,2120
2017-10-15T08:57:02.364Z,2168
2017-10-15T08:58:02.688Z,2136
2017-10-15T08:59:02.342Z,2128
2017-10-15T09:00:02.666Z,2132
2017-10-15T09:01:02.315Z,2152
2017-10-15T09:02:02.641Z,2164
2017-10-15T09:03:02.298Z,2180
2017-10-15T09:04:02.615Z,2192
2017-10-15T09:05:01.933Z,2200
2017-10-15T09:06:02.600Z,2200
2017-10-15T09:07:02.912Z,2224
2017-10-15T09:08:02.590Z,2256
2017-10-15T09:09:02.566Z,2256
2017-10-15T09:10:02.603Z,2324
2017-10-15T09:11:02.536Z,2320
2017-10-15T09:12:02.189Z,2292
2017-10-15T09:13:01.842Z,2308
2017-10-15T09:14:02.504Z,2304
2017-10-15T09:15:02.493Z,2316
2017-10-15T09:16:02.489Z,2316
2017-10-15T09:17:02.800Z,2512
2017-10-15T09:18:02.123Z,2456
2017-10-15T09:19:01.776Z,2364
2017-10-15T09:20:02.430Z,2444
2017-10-15T09:21:02.420Z,3064
2017-10-15T09:22:02.751Z,4524
2017-10-15T09:23:02.400Z,8060
2017-10-15T09:24:02.725Z,7972
2017-10-15T09:25:02.529Z,6364
2017-10-15T09:26:02.365Z,2408
2017-10-15T09:27:02.025Z,2588
2017-10-15T09:28:02.013Z,2548
2017-10-15T09:29:02.337Z,6824
2017-10-15T09:30:02.377Z,6288
2017-10-15T09:31:02.335Z,5672
2017-10-15T09:32:01.966Z,4800
2017-10-15T09:33:02.292Z,2700
2017-10-15T09:34:01.952Z,2572
2017-10-15T09:35:01.938Z,2576
2017-10-15T09:36:02.587Z,2556
2017-10-15T09:37:01.925Z,2560
2017-10-15T09:38:01.908Z,2516
2017-10-15T09:39:02.251Z,3040
2017-10-15T09:40:01.901Z,3192
2017-10-15T09:41:02.218Z,2576
2017-10-15T09:42:02.218Z,2612
2017-10-15T09:43:02.194Z,3680
2017-10-15T09:44:02.187Z,2900
2017-10-15T09:45:02.509Z,2620
2017-10-15T09:46:02.160Z,2628
2017-10-15T09:47:02.634Z,2744
2017-10-15T09:48:02.218Z,2656
2017-10-15T09:49:02.127Z,2676
2017-10-15T09:50:02.157Z,2684
2017-10-15T09:51:02.478Z,2696
2017-10-15T09:52:02.179Z,2692
2017-10-15T09:53:01.461Z,2704
2017-10-15T09:54:02.088Z,2736
2017-10-15T09:55:02.430Z,3188
2017-10-15T09:56:02.200Z,2956
2017-10-15T09:57:02.098Z,3172
2017-10-15T09:58:02.038Z,3216
2017-10-15T09:59:02.374Z,2772
2017-10-15T10:00:02.018Z,2792
2017-10-15T10:01:02.003Z,2792
2017-10-15T10:02:02.117Z,2792
2017-10-15T10:03:01.664Z,2828
2017-10-15T10:04:02.371Z,2932
2017-10-15T10:05:02.326Z,2992
2017-10-15T10:06:01.983Z,2876
2017-10-15T10:07:01.959Z,2924
2017-10-15T10:08:01.945Z,3068
2017-10-15T10:09:01.925Z,2924
2017-10-15T10:10:02.258Z,3268
2017-10-15T10:11:02.242Z,4260
2017-10-15T10:12:01.911Z,3524
2017-10-15T10:13:01.919Z,3372
2017-10-15T10:14:01.586Z,3140
2017-10-15T10:15:01.541Z,3232
2017-10-15T10:16:02.260Z,3048
2017-10-15T10:17:01.860Z,3212
2017-10-15T10:18:01.842Z,3248
2017-10-15T10:19:01.846Z,5840
2017-10-15T10:20:01.831Z,5660
2017-10-15T10:21:02.169Z,3156
2017-10-15T10:22:01.823Z,3232
2017-10-15T10:23:01.805Z,4088
2017-10-15T10:24:01.461Z,3136
2017-10-15T10:25:01.783Z,3184
2017-10-15T10:26:01.781Z,4100
2017-10-15T10:27:02.084Z,4152
2017-10-15T10:28:01.759Z,4228
2017-10-15T10:29:01.756Z,3932
2017-10-15T10:30:01.402Z,4276
2017-10-15T10:31:02.061Z,5936
2017-10-15T10:32:01.722Z,10060
2017-10-15T10:33:01.723Z,8464
2017-10-15T10:34:01.710Z,4460
2017-10-15T10:35:01.696Z,3436
2017-10-15T10:36:01.394Z,3880
2017-10-15T10:37:01.004Z,4100
2017-10-15T10:38:01.332Z,5168
2017-10-15T10:39:01.652Z,4628
2017-10-15T10:40:01.314Z,5148
2017-10-15T10:41:01.635Z,7900
2017-10-15T10:42:00.960Z,11684
2017-10-15T10:43:00.950Z,6096
2017-10-15T10:44:01.948Z,7732
2017-10-15T10:45:01.603Z,3968
2017-10-15T10:46:01.258Z,3928
2017-10-15T10:47:01.921Z,4216
2017-10-15T10:48:01.254Z,7940
2017-10-15T10:49:01.233Z,9260
2017-10-15T10:50:01.560Z,8624
2017-10-15T10:51:01.221Z,15088
2017-10-15T10:52:01.884Z,17888
2017-10-15T10:53:01.215Z,10860
2017-10-15T10:54:01.867Z,10812
2017-10-15T10:55:01.528Z,10396
2017-10-15T10:56:01.182Z,4692
2017-10-15T10:57:01.188Z,4144
2017-10-15T10:58:01.151Z,4024
2017-10-15T10:59:01.841Z,4400
2017-10-15T11:00:01.472Z,4736
2017-10-15T11:01:00.806Z,4712
2017-10-15T11:02:01.130Z,4912
2017-10-15T11:03:01.121Z,4968
2017-10-15T11:04:01.448Z,4772
2017-10-15T11:05:01.451Z,3916
2017-10-15T11:06:01.427Z,4588
2017-10-15T11:07:01.091Z,6100
2017-10-15T11:08:01.083Z,6608
2017-10-15T11:09:01.744Z,7280
2017-10-15T11:10:01.442Z,7004
2017-10-15T11:11:01.727Z,7560
2017-10-15T11:12:01.051Z,6744
2017-10-15T11:13:01.383Z,6056
2017-10-15T11:14:00.704Z,4512
2017-10-15T11:15:01.033Z,3864
2017-10-15T11:16:01.126Z,5492
2017-10-15T11:17:01.015Z,5656
2017-10-15T11:18:01.679Z,16000
2017-10-15T11:19:01.666Z,28640
2017-10-15T11:20:00.995Z,21856
2017-10-15T11:21:00.653Z,7240
2017-10-15T11:22:00.984Z,6380
2017-10-15T11:23:01.318Z,5848
2017-10-15T11:24:01.303Z,10004
2017-10-15T11:25:01.303Z,5432
2017-10-15T11:26:01.295Z,7540
2017-10-15T11:27:01.636Z,14848
2017-10-15T11:28:01.272Z,10876
2017-10-15T11:29:00.935Z,10808
2017-10-15T11:30:00.937Z,13056
2017-10-15T11:31:00.926Z,17312
2017-10-15T11:32:00.916Z,11916
2017-10-15T11:33:01.578Z,19756
2017-10-15T11:34:00.908Z,23456
2017-10-15T11:35:00.899Z,30464
2017-10-15T11:36:00.892Z,22240
2017-10-15T11:37:01.221Z,17952
2017-10-15T11:38:01.243Z,15864
2017-10-15T11:39:01.210Z,9556
2017-10-15T11:40:00.899Z,11864
2017-10-15T11:41:01.200Z,8672
2017-10-15T11:42:01.527Z,7560
2017-10-15T11:43:01.184Z,8352
2017-10-15T11:44:00.860Z,11492
2017-10-15T11:45:01.507Z,14592
2017-10-15T11:46:01.174Z,10272
2017-10-15T11:47:01.492Z,11176
2017-10-15T11:48:01.159Z,17760
2017-10-15T11:49:01.493Z,15456
2017-10-15T11:50:00.849Z,17184
2017-10-15T11:51:00.816Z,23200
2017-10-15T11:52:00.815Z,22752
2017-10-15T11:53:01.473Z,19520
2017-10-15T11:54:01.130Z,30048
2017-10-15T11:55:00.795Z,29664
2017-10-15T11:56:01.126Z,28544
2017-10-15T11:57:01.121Z,35872
2017-10-15T11:58:01.128Z,48704
2017-10-15T11:59:01.441Z,55808
2017-10-15T12:00:01.101Z,55520
2017-10-15T12:01:00.767Z,55840
2017-10-15T12:02:00.766Z,56032
2017-10-15T12:03:00.426Z,55840
2017-10-15T12:04:00.764Z,55424
2017-10-15T12:05:01.089Z,53504
2017-10-15T12:06:01.087Z,50496
2017-10-15T12:07:01.097Z,47648
2017-10-15T12:08:01.089Z,44928
2017-10-15T12:09:00.767Z,43264
2017-10-15T12:10:00.755Z,44096
2017-10-15T12:11:01.086Z,46048
2017-10-15T12:12:00.756Z,48288
2017-10-15T12:13:00.762Z,51168
2017-10-15T12:14:01.442Z,54016
2017-10-15T12:15:00.761Z,56480
2017-10-15T12:16:01.431Z,58624
2017-10-15T12:17:01.434Z,59680
2017-10-15T12:18:01.101Z,58528
2017-10-15T12:19:01.114Z,55456
2017-10-15T12:20:00.436Z,51136
2017-10-15T12:21:01.104Z,46752
2017-10-15T12:22:00.439Z,44384
2017-10-15T12:23:00.779Z,44352
2017-10-15T12:24:00.778Z,45760
2017-10-15T12:25:01.461Z,47936
2017-10-15T12:26:01.453Z,50016
2017-10-15T12:27:01.337Z,50848
2017-10-15T12:28:00.464Z,49568
2017-10-15T12:29:01.127Z,47392
2017-10-15T12:30:01.131Z,44928
2017-10-15T12:31:00.798Z,43328
2017-10-15T12:32:01.148Z,42944
2017-10-15T12:33:01.160Z,43776
2017-10-15T12:34:00.818Z,45056
2017-10-15T12:35:01.156Z,46176
2017-10-15T12:36:01.159Z,46208
2017-10-15T12:37:01.153Z,46496
2017-10-15T12:38:01.502Z,47168
2017-10-15T12:39:00.833Z,47296
2017-10-15T12:40:01.512Z,46592
2017-10-15T12:41:00.507Z,46432
2017-10-15T12:42:01.177Z,46688
2017-10-15T12:43:00.565Z,46272
2017-10-15T12:44:01.187Z,45792
2017-10-15T12:45:01.195Z,44832
2017-10-15T12:46:01.546Z,44160
2017-10-15T12:47:01.533Z,43744
2017-10-15T12:48:01.206Z,43456
2017-10-15T12:49:00.872Z,43264
2017-10-15T12:50:01.208Z,42976
2017-10-15T12:51:01.570Z,42752
2017-10-15T12:52:00.555Z,42592
2017-10-15T12:53:01.227Z,43072
2017-10-15T12:54:00.897Z,43424
2017-10-15T12:55:01.235Z,42848
2017-10-15T12:56:01.577Z,41664
2017-10-15T12:57:01.240Z,40928
2017-10-15T12:58:01.245Z,40576
2017-10-15T12:59:00.580Z,41504
2017-10-15T13:00:01.258Z,42816
2017-10-15T13:01:00.934Z,45056
2017-10-15T13:02:01.270Z,46976
2017-10-15T13:03:00.994Z,48256
2017-10-15T13:04:01.620Z,48000
2017-10-15T13:05:01.280Z,47136
2017-10-15T13:06:01.289Z,45824
2017-10-15T13:07:01.290Z,44640
2017-10-15T13:08:00.955Z,44032
2017-10-15T13:09:01.318Z,43168
2017-10-15T13:10:00.970Z,41216
2017-10-15T13:11:00.633Z,39264
2017-10-15T13:12:01.304Z,38112
2017-10-15T13:13:01.327Z,38784
2017-10-15T13:14:01.323Z,38944
2017-10-15T13:15:01.648Z,38560
2017-10-15T13:16:01.315Z,37504
2017-10-15T13:17:01.332Z,35968
2017-10-15T13:18:01.673Z,34464
2017-10-15T13:19:00.669Z,33376
2017-10-15T13:20:01.667Z,32800
2017-10-15T13:21:01.353Z,33440
2017-10-15T13:22:01.033Z,34688
2017-10-15T13:23:01.344Z,36448
2017-10-15T13:24:01.373Z,37408
2017-10-15T13:25:01.364Z,37312
2017-10-15T13:26:01.697Z,36960
2017-10-15T13:27:01.065Z,35872
2017-10-15T13:28:00.704Z,34080
2017-10-15T13:29:01.711Z,31744
2017-10-15T13:30:01.380Z,30368
2017-10-15T13:31:00.709Z,29440
2017-10-15T13:32:00.708Z,28992
2017-10-15T13:33:01.389Z,28032
2017-10-15T13:34:01.052Z,27008
2017-10-15T13:35:01.051Z,25568
2017-10-15T13:36:01.727Z,24256
2017-10-15T13:37:01.065Z,23008
2017-10-15T13:38:01.397Z,22016
2017-10-15T13:39:01.733Z,22048
2017-10-15T13:40:01.407Z,22720
2017-10-15T13:41:01.753Z,23968
2017-10-15T13:42:01.408Z,25248
2017-10-15T13:43:00.774Z,26080
2017-10-15T13:44:01.409Z,27104
2017-10-15T13:45:01.425Z,27840
2017-10-15T13:46:01.084Z,26784
2017-10-15T13:47:01.439Z,24512
2017-10-15T13:48:01.430Z,22944
2017-10-15T13:49:01.432Z,23008